Time;durP1;ratioP1;P1;durP2;ratioP2;P2;SDS_P1;SDS_P2;PMS_P1;PMS_P2;Temp;Humidity;BMP_temperature;BMP_pressure;BME280_temperature;BME280_humidity;BME280_pressure;Samples;Min_cycle;Max_cycle;Signal;HPM_P1;HPM_P2
2023/10/29 00:00:16;;;;;;;10.23;5.80;;;10.40;99.90;;;;;;4970889;28;20030;-67
2023/10/29 00:02:42;;;;;;;27.58;6.90;;;10.40;99.90;;;;;;4960291;28;20161;-67
2023/10/29 00:05:08;;;;;;;10.27;6.57;;;10.40;99.90;;;;;;4962748;28;20447;-66
2023/10/29 00:07:33;;;;;;;10.18;6.13;;;10.40;99.90;;;;;;4970052;28;20033;-68
2023/10/29 00:09:59;;;;;;;10.90;5.03;;;10.40;99.90;;;;;;4969574;28;20121;-66
2023/10/29 00:12:25;;;;;;;8.05;4.97;;;10.40;99.90;;;;;;4968857;28;20060;-67
2023/10/29 00:14:50;;;;;;;9.02;5.15;;;10.40;99.90;;;;;;4968278;28;20216;-66
2023/10/29 00:17:16;;;;;;;9.60;4.97;;;10.50;99.90;;;;;;4987948;28;20663;-69
2023/10/29 00:19:42;;;;;;;11.02;5.55;;;10.40;99.90;;;;;;4967344;28;20102;-67
2023/10/29 00:22:07;;;;;;;14.13;4.82;;;10.50;99.90;;;;;;4969303;28;20046;-67
2023/10/29 00:24:33;;;;;;;8.95;4.63;;;10.40;99.90;;;;;;4954375;28;20450;-68
2023/10/29 00:27:01;;;;;;;10.60;5.32;;;10.50;99.90;;;;;;4985767;28;20096;-67
2023/10/29 00:29:27;;;;;;;10.98;5.50;;;10.50;99.90;;;;;;4965795;28;20031;-66
2023/10/29 00:31:53;;;;;;;11.65;5.35;;;10.60;99.90;;;;;;4962023;28;20481;-69
2023/10/29 00:34:19;;;;;;;13.20;5.60;;;10.50;99.90;;;;;;4962994;28;20176;-67
2023/10/29 00:36:44;;;;;;;10.73;5.50;;;10.40;99.90;;;;;;4963109;28;20881;-66
2023/10/29 00:39:10;;;;;;;10.35;5.35;;;10.50;99.90;;;;;;4960551;28;20035;-70
2023/10/29 00:41:35;;;;;;;8.32;5.63;;;10.70;99.90;;;;;;4971950;28;20064;-67
2023/10/29 00:44:02;;;;;;;10.50;5.75;;;10.60;99.90;;;;;;4967423;28;20474;-67
2023/10/29 00:46:27;;;;;;;13.82;6.72;;;10.60;99.90;;;;;;4977646;28;20099;-69
2023/10/29 00:48:53;;;;;;;9.52;6.07;;;10.70;99.90;;;;;;4968815;28;20030;-68
2023/10/29 00:51:18;;;;;;;11.93;6.43;;;10.60;99.90;;;;;;4955983;28;20042;-70
2023/10/29 00:53:45;;;;;;;14.05;6.53;;;10.80;99.90;;;;;;4968591;28;20456;-71
2023/10/29 00:56:12;;;;;;;10.93;6.35;;;10.70;99.90;;;;;;4971926;28;20517;-68
2023/10/29 00:58:39;;;;;;;8.65;5.60;;;10.80;99.90;;;;;;4966261;28;20057;-69
2023/10/29 01:01:05;;;;;;;12.80;5.70;;;10.80;99.90;;;;;;4952240;28;20046;-69
2023/10/29 01:03:30;;;;;;;12.30;6.40;;;10.80;99.90;;;;;;4955927;28;20045;-69
2023/10/29 01:05:56;;;;;;;10.18;5.25;;;10.70;99.90;;;;;;4959811;28;20034;-70
2023/10/29 01:08:24;;;;;;;9.35;5.88;;;10.60;99.90;;;;;;4962295;28;20039;-67
2023/10/29 01:10:51;;;;;;;10.82;5.57;;;10.80;99.90;;;;;;4979581;28;20053;-69
2023/10/29 01:13:17;;;;;;;8.88;5.45;;;10.80;99.90;;;;;;4985339;28;20446;-70
2023/10/29 01:15:42;;;;;;;9.00;5.78;;;11.10;99.90;;;;;;4968354;28;20054;-69
2023/10/29 01:18:08;;;;;;;9.07;5.40;;;11.00;99.90;;;;;;4964663;28;20782;-69
2023/10/29 01:20:34;;;;;;;9.68;5.72;;;10.80;99.90;;;;;;4967337;28;20069;-67
2023/10/29 01:22:59;;;;;;;9.75;6.00;;;10.80;99.90;;;;;;4971539;28;20549;-67
2023/10/29 01:25:25;;;;;;;10.10;5.80;;;10.90;99.90;;;;;;4954131;28;20422;-75
2023/10/29 01:27:51;;;;;;;11.82;5.85;;;10.90;99.90;;;;;;4980365;28;20719;-70
2023/10/29 01:30:18;;;;;;;8.05;5.85;;;11.00;99.90;;;;;;4967675;28;20042;-71
2023/10/29 01:32:43;;;;;;;10.23;6.03;;;10.90;99.90;;;;;;4964935;28;20052;-72
2023/10/29 01:35:09;;;;;;;11.13;6.25;;;11.30;99.90;;;;;;4958946;28;20446;-69
2023/10/29 01:37:35;;;;;;;10.85;6.50;;;11.20;99.90;;;;;;4963125;28;20217;-73
2023/10/29 01:40:06;;;;;;;9.40;6.50;;;11.20;99.90;;;;;;4958791;28;20138;-70
2023/10/29 01:42:31;;;;;;;14.50;6.47;;;11.10;99.90;;;;;;4969856;28;20056;-73
2023/10/29 01:44:57;;;;;;;11.07;6.90;;;11.20;99.90;;;;;;4977289;28;20097;-69
2023/10/29 01:47:22;;;;;;;13.25;6.85;;;10.90;99.90;;;;;;4965839;28;20468;-71
2023/10/29 01:49:48;;;;;;;12.57;6.93;;;11.30;99.90;;;;;;4967100;28;20058;-72
2023/10/29 01:52:14;;;;;;;16.38;7.10;;;11.30;99.90;;;;;;4968064;28;20140;-72
2023/10/29 01:54:39;;;;;;;12.65;6.85;;;11.40;99.90;;;;;;4966109;28;20643;-70
2023/10/29 01:57:05;;;;;;;12.40;7.15;;;11.00;99.90;;;;;;4963852;28;20634;-70
2023/10/29 01:59:31;;;;;;;11.35;6.78;;;11.20;99.90;;;;;;4967380;28;20084;-70
2023/10/29 02:01:57;;;;;;;11.05;6.43;;;11.30;99.90;;;;;;4964549;28;20173;-72
2023/10/29 02:04:26;;;;;;;11.75;6.00;;;11.20;99.90;;;;;;4960218;28;20098;-68
2023/10/29 02:06:55;;;;;;;11.18;5.97;;;11.00;99.90;;;;;;4958821;28;20062;-71
2023/10/29 02:09:21;;;;;;;8.10;5.05;;;11.30;99.90;;;;;;4962695;28;20038;-68
2023/10/29 02:11:46;;;;;;;8.02;4.90;;;11.30;99.90;;;;;;4970478;28;20070;-67
2023/10/29 02:14:12;;;;;;;11.30;5.18;;;11.40;99.90;;;;;;4982136;28;20042;-69
2023/10/29 02:16:38;;;;;;;8.70;4.93;;;11.30;99.90;;;;;;4965416;28;20074;-69
2023/10/29 02:19:03;;;;;;;8.98;4.47;;;11.20;99.90;;;;;;4961895;28;20428;-71
2023/10/29 02:21:29;;;;;;;5.95;4.05;;;11.50;99.90;;;;;;4943880;28;20471;-67
2023/10/29 02:23:55;;;;;;;9.32;4.38;;;11.40;99.90;;;;;;4966197;28;20121;-69
2023/10/29 02:26:22;;;;;;;7.25;3.72;;;11.40;99.90;;;;;;4966033;28;20038;-68
2023/10/29 02:28:48;;;;;;;7.20;4.30;;;11.40;99.90;;;;;;4969134;28;20133;-69
2023/10/29 02:31:20;;;;;;;7.57;3.45;;;11.40;99.90;;;;;;4968878;28;20121;-68
2023/10/29 02:33:46;;;;;;;10.05;3.55;;;11.40;99.90;;;;;;4982809;28;20048;-73
2023/10/29 02:36:13;;;;;;;5.60;3.22;;;11.50;99.90;;;;;;4952491;28;20109;-72
2023/10/29 02:38:43;;;;;;;9.55;3.83;;;11.40;99.90;;;;;;4952298;28;20058;-69
2023/10/29 02:41:09;;;;;;;5.72;3.40;;;11.40;99.90;;;;;;4970467;28;20133;-68
2023/10/29 02:43:38;;;;;;;6.95;3.65;;;11.20;99.90;;;;;;4971080;28;20041;-67
2023/10/29 02:46:04;;;;;;;6.40;3.80;;;11.50;99.90;;;;;;4962163;28;20042;-68
2023/10/29 02:48:29;;;;;;;5.70;3.13;;;11.30;99.90;;;;;;4973186;28;20435;-74
2023/10/29 02:50:55;;;;;;;4.47;3.00;;;11.40;99.90;;;;;;4950372;28;20042;-69
2023/10/29 02:53:21;;;;;;;7.00;3.30;;;11.50;99.90;;;;;;4961444;28;20078;-71
2023/10/29 02:55:47;;;;;;;5.55;3.10;;;11.50;99.90;;;;;;4968961;28;20495;-68
2023/10/29 02:58:13;;;;;;;5.70;3.20;;;11.40;99.90;;;;;;4969292;28;20046;-69
2023/10/29 03:00:39;;;;;;;4.20;2.58;;;11.20;99.90;;;;;;4968589;28;20073;-69
2023/10/29 03:03:05;;;;;;;7.60;2.92;;;11.30;99.90;;;;;;4950412;28;20045;-68
2023/10/29 03:05:30;;;;;;;7.00;3.10;;;11.50;99.90;;;;;;4970163;28;20038;-70
2023/10/29 03:07:57;;;;;;;6.13;2.47;;;11.40;99.90;;;;;;4972883;28;20037;-69
2023/10/29 03:10:23;;;;;;;5.93;2.90;;;11.30;99.90;;;;;;4963031;28;20383;-67
2023/10/29 03:12:49;;;;;;;4.55;2.70;;;11.50;99.90;;;;;;4970283;28;20042;-69
2023/10/29 03:15:14;;;;;;;8.35;3.00;;;11.60;99.90;;;;;;4972557;28;20126;-69
2023/10/29 03:17:40;;;;;;;4.45;2.83;;;11.60;99.90;;;;;;4971083;28;20465;-69
2023/10/29 03:20:06;;;;;;;4.05;2.60;;;11.40;99.90;;;;;;4968147;28;20399;-69
2023/10/29 03:22:32;;;;;;;5.07;2.40;;;11.40;99.90;;;;;;4983047;28;20038;-71
2023/10/29 03:24:58;;;;;;;3.42;2.20;;;11.40;99.90;;;;;;4991419;28;20436;-69
2023/10/29 03:27:23;;;;;;;4.90;2.30;;;11.60;99.90;;;;;;4967677;28;20042;-69
2023/10/29 03:29:49;;;;;;;5.10;2.58;;;11.60;99.90;;;;;;4971986;28;20442;-70
2023/10/29 03:32:16;;;;;;;6.22;2.30;;;11.40;99.90;;;;;;4966225;28;20054;-71
2023/10/29 03:34:41;;;;;;;7.38;2.97;;;11.50;99.90;;;;;;4971365;28;20046;-70
2023/10/29 03:37:07;;;;;;;8.43;2.47;;;11.40;99.90;;;;;;4986071;28;20046;-70
2023/10/29 03:39:32;;;;;;;6.95;2.42;;;11.60;99.90;;;;;;4972548;28;20125;-69
2023/10/29 03:41:58;;;;;;;4.13;2.25;;;11.70;99.90;;;;;;4971299;28;20070;-75
2023/10/29 03:44:23;;;;;;;5.22;1.95;;;11.50;99.90;;;;;;4970713;28;20035;-69
2023/10/29 03:46:51;;;;;;;5.82;2.20;;;11.60;99.90;;;;;;4970132;28;20073;-70
2023/10/29 03:49:17;;;;;;;6.75;2.50;;;11.60;99.90;;;;;;4969681;28;20085;-69
2023/10/29 03:51:44;;;;;;;4.13;2.13;;;11.80;99.90;;;;;;4969620;28;20046;-69
2023/10/29 03:54:10;;;;;;;5.57;2.03;;;11.50;99.90;;;;;;4971824;28;20386;-70
2023/10/29 03:56:35;;;;;;;5.97;2.65;;;11.70;99.90;;;;;;4969624;28;20072;-69
2023/10/29 03:59:01;;;;;;;4.93;2.05;;;11.60;99.90;;;;;;4963614;28;20042;-71
2023/10/29 04:01:26;;;;;;;3.38;2.10;;;11.60;99.90;;;;;;4960978;28;20042;-69
2023/10/29 04:03:52;;;;;;;3.67;2.33;;;11.70;99.90;;;;;;4988249;28;20035;-73
2023/10/29 04:06:18;;;;;;;4.55;2.17;;;11.60;99.90;;;;;;4972035;28;20219;-68
2023/10/29 04:08:43;;;;;;;5.25;2.00;;;11.70;99.90;;;;;;4976177;28;20347;-73
2023/10/29 04:11:12;;;;;;;4.75;1.92;;;11.80;99.90;;;;;;4985756;28;20109;-73
2023/10/29 04:13:37;;;;;;;4.88;2.10;;;11.60;99.90;;;;;;4970688;28;20061;-73
2023/10/29 04:16:03;;;;;;;8.05;3.05;;;11.70;99.90;;;;;;4966736;28;20133;-69
2023/10/29 04:18:31;;;;;;;5.50;2.10;;;11.70;99.90;;;;;;4970903;28;20042;-73
2023/10/29 04:20:58;;;;;;;4.75;1.83;;;11.60;99.90;;;;;;4969377;28;20105;-70
2023/10/29 04:23:24;;;;;;;5.45;1.65;;;11.80;99.90;;;;;;4966377;28;20344;-68
2023/10/29 04:25:49;;;;;;;5.25;1.75;;;11.90;99.90;;;;;;4955415;28;20034;-73
2023/10/29 04:28:15;;;;;;;3.28;1.65;;;11.60;99.90;;;;;;4969527;28;20113;-69
2023/10/29 04:30:40;;;;;;;6.93;2.40;;;11.90;99.90;;;;;;4973281;28;20042;-67
2023/10/29 04:33:07;;;;;;;2.58;1.40;;;11.80;99.90;;;;;;4960920;28;20121;-70
2023/10/29 04:35:33;;;;;;;4.03;1.63;;;11.80;99.90;;;;;;4951459;28;20478;-71
2023/10/29 04:37:59;;;;;;;4.45;1.75;;;11.80;99.90;;;;;;4964645;28;20045;-71
2023/10/29 04:40:24;;;;;;;3.47;1.38;;;11.80;99.90;;;;;;4964662;28;20042;-70
2023/10/29 04:42:50;;;;;;;4.50;1.63;;;11.80;99.90;;;;;;4969767;28;20038;-71
2023/10/29 04:45:15;;;;;;;2.63;1.10;;;11.70;99.90;;;;;;4964567;28;20034;-71
2023/10/29 04:47:41;;;;;;;2.33;1.27;;;11.70;99.90;;;;;;4972218;28;20100;-69
2023/10/29 04:50:07;;;;;;;2.30;1.13;;;11.70;99.90;;;;;;4969527;28;20049;-70
2023/10/29 04:52:33;;;;;;;3.15;1.40;;;11.80;99.90;;;;;;4970814;28;20112;-72
2023/10/29 04:55:05;;;;;;;2.80;1.45;;;11.70;99.90;;;;;;4974717;28;20034;-72
2023/10/29 04:57:30;;;;;;;1.33;1.10;;;11.60;99.90;;;;;;4969442;28;20949;-68
2023/10/29 04:59:56;;;;;;;3.28;1.25;;;11.70;99.90;;;;;;4971571;28;20046;-71
2023/10/29 05:02:22;;;;;;;4.70;1.15;;;11.70;99.90;;;;;;4968170;28;20045;-71
2023/10/29 05:04:51;;;;;;;2.00;0.90;;;11.70;99.90;;;;;;4962530;28;20047;-70
2023/10/29 05:07:17;;;;;;;1.85;0.90;;;11.60;99.90;;;;;;4959943;28;20046;-74
2023/10/29 05:09:43;;;;;;;3.63;1.10;;;11.70;99.90;;;;;;4955515;28;20188;-72
2023/10/29 05:12:09;;;;;;;3.28;1.08;;;11.60;99.90;;;;;;4968963;28;20045;-68
2023/10/29 05:14:35;;;;;;;2.20;0.80;;;11.70;99.90;;;;;;4975132;28;20042;-71
2023/10/29 05:17:02;;;;;;;1.90;0.90;;;11.60;99.90;;;;;;4970090;28;20061;-71
2023/10/29 05:19:27;;;;;;;5.53;1.00;;;11.60;99.90;;;;;;4969808;28;20141;-73
2023/10/29 05:21:53;;;;;;;2.78;0.88;;;11.70;99.90;;;;;;4973854;28;20169;-69
2023/10/29 05:24:18;;;;;;;2.72;0.98;;;11.70;99.90;;;;;;4970580;28;20045;-73
2023/10/29 05:26:44;;;;;;;2.05;0.98;;;11.60;99.90;;;;;;4966574;28;20039;-71
2023/10/29 05:29:09;;;;;;;2.70;1.00;;;11.60;99.90;;;;;;4954351;28;20414;-73
2023/10/29 05:31:35;;;;;;;2.65;1.00;;;11.60;99.90;;;;;;4969533;28;20042;-70
2023/10/29 05:34:01;;;;;;;2.38;1.10;;;11.60;99.90;;;;;;4962214;28;20034;-72
2023/10/29 05:36:27;;;;;;;1.92;0.85;;;11.60;99.90;;;;;;4946720;28;20177;-73
2023/10/29 05:38:53;;;;;;;4.07;0.80;;;11.70;99.90;;;;;;4966266;28;20069;-75
2023/10/29 05:41:19;;;;;;;1.73;0.82;;;11.70;99.90;;;;;;4963254;28;20034;-72
2023/10/29 05:43:44;;;;;;;1.45;1.10;;;11.60;99.90;;;;;;4971097;28;20189;-70
2023/10/29 05:46:14;;;;;;;2.15;0.70;;;11.70;99.90;;;;;;4964809;28;20054;-77
2023/10/29 05:48:40;;;;;;;3.75;0.98;;;11.60;99.90;;;;;;4973543;28;20427;-70
2023/10/29 05:51:06;;;;;;;2.85;0.90;;;11.60;99.90;;;;;;4969580;28;20061;-71
2023/10/29 05:53:32;;;;;;;1.70;0.70;;;11.70;99.90;;;;;;4961737;28;20039;-68
2023/10/29 05:55:57;;;;;;;3.03;1.35;;;11.70;99.90;;;;;;4944449;28;20370;-67
2023/10/29 05:58:24;;;;;;;1.17;0.68;;;11.60;99.90;;;;;;4958309;28;20038;-69
2023/10/29 06:00:50;;;;;;;2.25;0.80;;;11.60;99.90;;;;;;4975912;28;20069;-69
2023/10/29 06:03:16;;;;;;;1.40;0.65;;;11.60;99.90;;;;;;4970052;28;20090;-71
2023/10/29 06:05:42;;;;;;;3.10;1.00;;;11.60;99.90;;;;;;4967540;28;20452;-69
2023/10/29 06:08:07;;;;;;;2.33;1.10;;;11.70;99.90;;;;;;4987899;28;20046;-70
2023/10/29 06:10:33;;;;;;;2.80;0.77;;;11.70;99.90;;;;;;4972240;28;20057;-69
2023/10/29 06:12:59;;;;;;;1.40;0.70;;;11.70;99.90;;;;;;4952809;28;20374;-68
2023/10/29 06:15:25;;;;;;;4.00;0.80;;;11.70;99.90;;;;;;4953763;28;20050;-71
2023/10/29 06:17:53;;;;;;;2.92;1.20;;;11.70;99.90;;;;;;4963497;28;20393;-71
2023/10/29 06:20:20;;;;;;;2.40;0.70;;;11.80;99.90;;;;;;4938271;28;20113;-69
2023/10/29 06:22:49;;;;;;;2.22;1.00;;;11.80;99.90;;;;;;4964891;28;20042;-70
2023/10/29 06:25:16;;;;;;;6.10;2.67;;;11.90;99.90;;;;;;4981994;28;20034;-70
2023/10/29 06:27:41;;;;;;;4.38;1.67;;;11.80;99.90;;;;;;4981712;28;20565;-71
2023/10/29 06:30:08;;;;;;;5.20;2.33;;;11.80;99.90;;;;;;4986829;28;20117;-69
2023/10/29 06:32:33;;;;;;;3.90;1.10;;;11.70;99.90;;;;;;4959086;28;20188;-70
2023/10/29 06:34:59;;;;;;;5.07;1.95;;;11.80;99.90;;;;;;4953060;28;20133;-69
2023/10/29 06:37:25;;;;;;;7.80;2.60;;;11.80;99.90;;;;;;4968178;28;20039;-69
2023/10/29 06:39:50;;;;;;;2.45;1.08;;;11.80;99.90;;;;;;4989621;28;20494;-69
2023/10/29 06:42:16;;;;;;;3.20;0.70;;;12.00;99.90;;;;;;4972780;28;20451;-70
2023/10/29 06:44:41;;;;;;;2.28;0.85;;;12.00;99.90;;;;;;4968593;28;20053;-69
2023/10/29 06:47:07;;;;;;;1.95;0.73;;;12.00;99.90;;;;;;4966533;28;20093;-69
2023/10/29 06:49:33;;;;;;;5.00;0.90;;;12.00;99.90;;;;;;4965721;28;20042;-68
2023/10/29 06:51:59;;;;;;;5.13;1.98;;;12.00;99.90;;;;;;4963392;28;20188;-71
2023/10/29 06:54:24;;;;;;;8.50;3.22;;;12.10;99.90;;;;;;4968882;28;20133;-70
2023/10/29 06:56:50;;;;;;;4.53;1.00;;;12.10;99.90;;;;;;4966031;28;20062;-69
2023/10/29 06:59:15;;;;;;;1.83;0.60;;;12.00;99.90;;;;;;4979578;28;20045;-67
2023/10/29 07:01:42;;;;;;;1.60;1.00;;;12.10;99.90;;;;;;4968636;28;20502;-71
2023/10/29 07:04:08;;;;;;;1.20;0.80;;;12.00;99.90;;;;;;4963212;28;20325;-70
2023/10/29 07:06:33;;;;;;;5.18;0.80;;;12.00;99.90;;;;;;4973667;28;20034;-69
2023/10/29 07:09:00;;;;;;;3.40;0.80;;;12.10;99.90;;;;;;4968924;28;20112;-71
2023/10/29 07:11:28;;;;;;;2.80;0.65;;;12.10;99.90;;;;;;4974193;28;20743;-68
2023/10/29 07:13:54;;;;;;;2.65;1.15;;;12.10;99.90;;;;;;4971110;28;20673;-72
2023/10/29 07:16:19;;;;;;;1.63;0.70;;;12.00;99.90;;;;;;4956249;28;20050;-70
2023/10/29 07:18:45;;;;;;;3.25;0.80;;;12.00;99.90;;;;;;4965447;28;20065;-70
2023/10/29 07:21:10;;;;;;;3.20;0.80;;;12.00;99.90;;;;;;4965244;28;20082;-68
2023/10/29 07:23:36;;;;;;;2.83;1.10;;;11.90;99.90;;;;;;4979827;28;20518;-70
2023/10/29 07:26:02;;;;;;;3.05;0.90;;;11.90;99.90;;;;;;4968176;28;20041;-70
2023/10/29 07:28:28;;;;;;;3.53;1.00;;;11.90;99.90;;;;;;4950677;28;20089;-70
2023/10/29 07:30:55;;;;;;;3.42;1.00;;;11.80;99.90;;;;;;4953476;28;20039;-73
2023/10/29 07:33:21;;;;;;;2.75;1.40;;;11.80;99.90;;;;;;4970491;28;20386;-71
2023/10/29 07:35:46;;;;;;;1.70;0.80;;;11.80;99.90;;;;;;4969051;28;20046;-70
2023/10/29 07:38:12;;;;;;;2.75;0.90;;;11.80;99.90;;;;;;4966907;28;20505;-72
2023/10/29 07:40:38;;;;;;;4.00;1.15;;;11.80;99.90;;;;;;4978778;28;20050;-70
2023/10/29 07:43:04;;;;;;;4.85;0.90;;;12.10;99.90;;;;;;4971503;28;20120;-71
2023/10/29 07:45:31;;;;;;;3.92;1.05;;;12.10;99.90;;;;;;4970063;28;20038;-72
2023/10/29 07:47:57;;;;;;;2.40;0.80;;;12.30;99.90;;;;;;4957442;28;20089;-69
2023/10/29 07:50:22;;;;;;;3.63;0.95;;;12.30;99.90;;;;;;4971561;28;20398;-72
2023/10/29 07:52:48;;;;;;;4.35;1.25;;;12.40;99.90;;;;;;4975819;28;20085;-71
2023/10/29 07:55:13;;;;;;;3.80;2.22;;;12.50;99.90;;;;;;4971084;28;20045;-72
2023/10/29 07:57:39;;;;;;;5.95;1.42;;;12.70;99.90;;;;;;4973586;28;20046;-73
2023/10/29 08:00:14;;;;;;;3.97;0.70;;;12.70;99.90;;;;;;4968608;28;20046;-70
2023/10/29 08:02:41;;;;;;;2.78;0.95;;;12.70;99.90;;;;;;4969836;28;20042;-71
2023/10/29 08:05:08;;;;;;;2.97;0.80;;;12.70;99.90;;;;;;4971310;28;20032;-71
2023/10/29 08:07:33;;;;;;;1.63;0.95;;;12.70;99.90;;;;;;4974463;28;20038;-72
2023/10/29 08:09:59;;;;;;;3.22;0.70;;;12.70;99.90;;;;;;4974509;28;20352;-71
2023/10/29 08:12:26;;;;;;;4.03;0.93;;;12.70;99.90;;;;;;4971789;28;20439;-73
2023/10/29 08:14:52;;;;;;;2.78;0.90;;;12.80;99.90;;;;;;4972290;28;20074;-72
2023/10/29 08:17:18;;;;;;;2.65;0.73;;;12.70;99.90;;;;;;4972034;28;20122;-70
2023/10/29 08:19:44;;;;;;;4.25;1.00;;;12.70;99.90;;;;;;4974871;28;20069;-71
2023/10/29 08:22:10;;;;;;;3.60;1.02;;;12.80;99.90;;;;;;4975374;28;20116;-71
2023/10/29 08:24:35;;;;;;;4.40;0.82;;;12.80;99.90;;;;;;4978259;28;20042;-72
2023/10/29 08:27:01;;;;;;;3.10;0.88;;;12.80;99.90;;;;;;4970265;28;20030;-71
2023/10/29 08:29:27;;;;;;;6.43;0.88;;;12.80;99.90;;;;;;4974070;28;20042;-69
2023/10/29 08:31:52;;;;;;;1.40;0.60;;;12.90;99.90;;;;;;4963949;28;20183;-70
2023/10/29 08:34:18;;;;;;;2.00;0.57;;;12.90;99.90;;;;;;4967013;28;20089;-70
2023/10/29 08:36:44;;;;;;;2.35;0.75;;;12.90;99.90;;;;;;4970943;28;20121;-70
2023/10/29 08:39:09;;;;;;;2.38;0.70;;;13.00;99.90;;;;;;4970248;28;20051;-72
2023/10/29 08:41:35;;;;;;;1.65;0.68;;;13.10;99.90;;;;;;4973078;28;20046;-70
2023/10/29 08:44:00;;;;;;;3.90;1.08;;;13.10;99.90;;;;;;4971778;28;20606;-71
2023/10/29 08:46:26;;;;;;;3.00;0.90;;;13.20;99.90;;;;;;4983622;28;20064;-72
2023/10/29 08:48:52;;;;;;;5.43;1.23;;;13.30;99.90;;;;;;4968665;28;20043;-69
2023/10/29 08:51:17;;;;;;;4.25;1.35;;;13.30;99.90;;;;;;4969121;28;20418;-72
2023/10/29 08:53:43;;;;;;;5.05;1.40;;;13.40;99.90;;;;;;4972348;28;20399;-70
2023/10/29 08:56:08;;;;;;;2.50;0.60;;;13.50;99.90;;;;;;4994429;28;20051;-69
2023/10/29 08:58:34;;;;;;;3.90;0.82;;;13.60;99.90;;;;;;4970551;28;20467;-71
2023/10/29 09:01:00;;;;;;;6.88;1.00;;;13.60;99.90;;;;;;4987985;28;20070;-70
2023/10/29 09:03:26;;;;;;;4.38;0.60;;;13.70;99.90;;;;;;4954770;28;20030;-73
2023/10/29 09:05:51;;;;;;;2.83;0.90;;;13.70;99.90;;;;;;4977542;28;20034;-73
2023/10/29 09:08:17;;;;;;;2.88;0.90;;;13.80;99.90;;;;;;4991115;28;20053;-68
2023/10/29 09:10:45;;;;;;;1.77;0.50;;;13.80;99.90;;;;;;4978782;28;20053;-70
2023/10/29 09:13:11;;;;;;;2.72;0.63;;;13.90;99.90;;;;;;4995650;28;20088;-71
2023/10/29 09:15:36;;;;;;;5.03;1.80;;;13.90;99.90;;;;;;4957633;28;20066;-69
2023/10/29 09:18:02;;;;;;;4.93;0.90;;;14.00;99.90;;;;;;4971423;28;20114;-72
2023/10/29 09:20:28;;;;;;;9.02;1.40;;;14.10;99.90;;;;;;4972509;28;20505;-69
2023/10/29 09:22:53;;;;;;;6.05;1.80;;;14.10;99.90;;;;;;4971599;28;20216;-70
2023/10/29 09:25:19;;;;;;;2.72;1.38;;;14.20;99.90;;;;;;4972523;28;20386;-73
2023/10/29 09:27:47;;;;;;;2.90;1.05;;;14.10;99.90;;;;;;4970696;28;20038;-69
2023/10/29 09:30:13;;;;;;;6.28;1.00;;;14.10;99.90;;;;;;4973093;28;20163;-69
2023/10/29 09:32:38;;;;;;;4.47;1.02;;;14.10;99.90;;;;;;4969343;28;20045;-72
2023/10/29 09:35:04;;;;;;;6.70;1.42;;;14.10;99.90;;;;;;4964760;28;20046;-72
2023/10/29 09:37:34;;;;;;;3.08;0.80;;;14.10;99.90;;;;;;4978459;28;20389;-70
2023/10/29 09:40:01;;;;;;;3.58;1.60;;;14.10;99.90;;;;;;4974372;28;20042;-69
2023/10/29 09:42:32;;;;;;;7.50;2.15;;;14.10;99.90;;;;;;4970150;28;20050;-69
2023/10/29 09:44:58;;;;;;;5.53;1.45;;;14.00;99.90;;;;;;4985893;28;20339;-72
2023/10/29 09:47:26;;;;;;;5.53;2.25;;;14.00;99.90;;;;;;4968913;28;20042;-71
2023/10/29 09:49:54;;;;;;;3.63;1.25;;;14.10;99.90;;;;;;4969074;28;20395;-70
2023/10/29 09:52:28;;;;;;;5.07;2.15;;;14.20;99.90;;;;;;4968291;28;20685;-70
2023/10/29 09:54:56;;;;;;;6.47;2.20;;;14.10;99.90;;;;;;4967876;28;20455;-71
2023/10/29 09:57:22;;;;;;;3.25;1.75;;;14.20;99.90;;;;;;4971054;28;20444;-71
2023/10/29 09:59:48;;;;;;;4.72;1.27;;;14.30;99.90;;;;;;4974816;28;20172;-71
2023/10/29 10:02:16;;;;;;;5.47;1.15;;;14.30;99.90;;;;;;4971038;28;20065;-73
2023/10/29 10:04:43;;;;;;;3.03;1.20;;;14.40;99.90;;;;;;4970789;28;20129;-68
2023/10/29 10:07:10;;;;;;;4.75;1.58;;;14.40;99.90;;;;;;4969487;28;20546;-71
2023/10/29 10:09:52;;;;;;;6.57;1.27;;;14.50;99.90;;;;;;4970025;28;20070;-68
2023/10/29 10:12:18;;;;;;;8.20;1.20;;;14.50;99.90;;;;;;4969692;28;20628;-74
2023/10/29 10:14:43;;;;;;;4.35;1.33;;;14.50;99.90;;;;;;4968245;28;20073;-73
2023/10/29 10:17:12;;;;;;;5.90;1.70;;;14.30;99.90;;;;;;4967741;28;20138;-69
2023/10/29 10:19:40;;;;;;;3.63;1.60;;;14.20;99.90;;;;;;4953039;28;20042;-73
2023/10/29 10:22:06;;;;;;;5.18;1.20;;;14.20;99.90;;;;;;4983071;28;20117;-70
2023/10/29 10:24:40;;;;;;;4.10;1.38;;;14.20;99.90;;;;;;4969172;28;20044;-70
2023/10/29 10:27:06;;;;;;;6.38;1.20;;;14.20;99.90;;;;;;4954624;28;20030;-68
2023/10/29 10:29:33;;;;;;;5.07;0.93;;;14.30;99.90;;;;;;4971891;28;20133;-70
2023/10/29 10:32:01;;;;;;;10.68;1.60;;;14.40;99.90;;;;;;4984370;28;20077;-71
2023/10/29 10:34:27;;;;;;;8.15;1.33;;;14.50;99.90;;;;;;4980872;28;20402;-70
2023/10/29 10:36:59;;;;;;;8.40;1.75;;;14.40;99.90;;;;;;4972809;28;20045;-69
2023/10/29 10:39:27;;;;;;;5.18;1.00;;;14.30;99.90;;;;;;4969478;28;20062;-69
2023/10/29 10:41:53;;;;;;;5.18;1.45;;;14.30;99.90;;;;;;4955069;28;20539;-69
2023/10/29 10:44:21;;;;;;;6.13;1.42;;;14.30;99.90;;;;;;4986815;28;20113;-76
2023/10/29 10:46:48;;;;;;;3.78;1.50;;;14.30;99.90;;;;;;4970947;28;20137;-70
2023/10/29 10:49:15;;;;;;;9.27;1.40;;;14.30;99.90;;;;;;4971571;28;20390;-69
2023/10/29 10:51:41;;;;;;;5.32;1.83;;;14.30;99.90;;;;;;4972015;28;20403;-70
2023/10/29 10:54:07;;;;;;;6.68;1.40;;;14.40;99.90;;;;;;4956673;28;20042;-69
2023/10/29 10:56:38;;;;;;;8.10;2.47;;;14.40;99.90;;;;;;4971902;28;20074;-72
2023/10/29 10:59:05;;;;;;;7.72;1.70;;;14.50;99.90;;;;;;4972461;28;20034;-71
2023/10/29 11:01:35;;;;;;;6.13;1.42;;;14.50;99.90;;;;;;4978899;28;20043;-70
2023/10/29 11:04:03;;;;;;;8.57;1.40;;;14.50;99.90;;;;;;4987092;28;20423;-72
2023/10/29 11:06:30;;;;;;;6.60;1.35;;;14.50;99.90;;;;;;4979307;28;20141;-71
2023/10/29 11:08:56;;;;;;;9.18;1.88;;;14.40;99.90;;;;;;4973715;28;20030;-69
2023/10/29 11:11:38;;;;;;;6.50;1.92;;;14.30;99.90;;;;;;4988312;28;20050;-69
2023/10/29 11:14:08;;;;;;;9.35;2.40;;;14.30;99.90;;;;;;4972855;28;20085;-69
2023/10/29 11:16:44;;;;;;;8.23;1.92;;;14.30;99.90;;;;;;4967076;28;20125;-73
2023/10/29 11:19:35;;;;;;;7.95;1.73;;;14.30;99.90;;;;;;4974078;28;20664;-69
2023/10/29 11:22:21;;;;;;;9.77;2.38;;;14.30;99.90;;;;;;4987310;28;20062;-70
2023/10/29 11:25:08;;;;;;;6.85;1.90;;;14.40;99.90;;;;;;4973186;28;20097;-73
2023/10/29 11:27:47;;;;;;;6.72;1.70;;;14.50;99.90;;;;;;4968611;28;20034;-69
2023/10/29 11:30:21;;;;;;;9.23;1.90;;;14.60;99.90;;;;;;4976186;28;20095;-69
2023/10/29 11:33:05;;;;;;;8.00;1.58;;;14.60;99.90;;;;;;4974891;28;20057;-71
2023/10/29 11:35:31;;;;;;;6.38;1.40;;;14.60;99.90;;;;;;4954968;28;20112;-70
2023/10/29 11:38:00;;;;;;;4.70;1.30;;;14.70;99.90;;;;;;4963247;28;20797;-74
2023/10/29 11:40:25;;;;;;;6.38;1.10;;;14.60;99.90;;;;;;4968328;28;20056;-69
2023/10/29 11:42:51;;;;;;;4.70;1.30;;;14.60;99.90;;;;;;4974109;28;20474;-71
2023/10/29 11:45:29;;;;;;;5.45;1.15;;;14.60;99.90;;;;;;4968952;28;20042;-70
2023/10/29 11:48:11;;;;;;;5.95;1.30;;;14.60;99.90;;;;;;4969860;28;20120;-69
2023/10/29 11:50:37;;;;;;;4.78;0.90;;;14.60;99.90;;;;;;4958911;28;20047;-70
2023/10/29 11:53:03;;;;;;;6.88;1.00;;;14.50;99.90;;;;;;4945379;28;20042;-72
2023/10/29 11:55:38;;;;;;;5.10;1.20;;;14.50;99.90;;;;;;4972461;28;20634;-71
2023/10/29 11:58:05;;;;;;;6.80;0.95;;;14.40;99.90;;;;;;4969320;28;20126;-69
2023/10/29 12:00:40;;;;;;;5.65;1.10;;;14.30;99.90;;;;;;4987132;28;20042;-69
2023/10/29 12:03:08;;;;;;;4.15;0.80;;;14.30;99.90;;;;;;4973034;28;20042;-71
2023/10/29 12:05:34;;;;;;;6.07;1.05;;;14.40;99.90;;;;;;4977668;28;20042;-69
2023/10/29 12:08:04;;;;;;;4.57;1.35;;;14.40;99.90;;;;;;4977644;28;20039;-70
2023/10/29 12:10:30;;;;;;;10.05;1.13;;;14.40;99.90;;;;;;4967301;28;20077;-69
2023/10/29 12:12:56;;;;;;;3.53;1.10;;;14.40;99.90;;;;;;4980883;28;20074;-67
2023/10/29 12:15:24;;;;;;;5.28;1.20;;;14.50;99.90;;;;;;4974743;28;20100;-69
2023/10/29 12:17:50;;;;;;;9.35;0.98;;;14.40;99.90;;;;;;4971638;28;20069;-70
2023/10/29 12:20:25;;;;;;;3.70;1.17;;;14.40;99.90;;;;;;4975111;28;20061;-69
2023/10/29 12:22:57;;;;;;;6.07;1.02;;;14.40;99.90;;;;;;4975244;28;20069;-69
2023/10/29 12:25:27;;;;;;;4.70;1.50;;;14.40;99.90;;;;;;4972632;28;20088;-70
2023/10/29 12:27:54;;;;;;;6.20;1.03;;;14.40;99.90;;;;;;4959487;28;21511;-70
2023/10/29 12:30:39;;;;;;;4.15;1.08;;;14.40;99.90;;;;;;4955480;28;20034;-69
2023/10/29 12:33:19;;;;;;;5.18;1.08;;;14.40;99.90;;;;;;4954305;28;20739;-69
2023/10/29 12:35:47;;;;;;;5.40;1.40;;;14.40;99.90;;;;;;4963294;28;20096;-69
2023/10/29 12:38:13;;;;;;;7.65;1.55;;;14.30;99.90;;;;;;4980714;28;20057;-73
2023/10/29 12:41:05;;;;;;;6.25;1.45;;;14.30;99.90;;;;;;4977983;28;20054;-68
2023/10/29 12:43:37;;;;;;;5.13;1.00;;;14.20;99.90;;;;;;4970445;28;20498;-69